Aeroporto :
LOGIN :

Iscrizione | Disclaimer

   EN    FR    IT 

 










Sommario :    VFR   VFR Marginale   IFR   IFR Intensivo   IFR Molto Intensivo
Visibilità : 
Base nubi : 
>= 8 km
>= 3000ft
5 / 8 km
1000 / 3000 ft
1500m / 5 km
500 / 1000 ft
800 / 1500m
200 / 500 ft
< 800m
< 200 ft
Simboli :   Temporali  Nebbia  Neve Forte  Precipitazioni Forti  Vento > 20 kt
SIGMETs :   Varie  Temporali  Ghiacco  Turbolenza  Onda orograficha  Ceneri Vulcaniche






- Altitudine del aeroporto : 634 ft
- Codice IATA : MXX


ESKM - Mora

ULTIMO METAR :
  • 111920Z AUTO 13005KT 3500 -RASN OVC005/// M01/M01 Q1006

METARs OBSOLETI :
  • 111850Z AUTO 12007KT 4100 -SN OVC006/// M01/M01 Q1006 RESHUP
  • 111820Z AUTO 12007KT 9999 FZUP OVC007/// M01/M01 Q1006 REDZ
  • 111750Z AUTO 12007KT 9999 OVC008/// M01/M01 Q1006
  • 111720Z AUTO 12009KT 9999 SG OVC008/// M01/M01 Q1006 RESG
  • 111650Z AUTO 12006KT 2100 -SN FEW006/// SCT011/// OVC014/// M01/M01 Q1006

TAF N/A



MetMap, La meteo Aeronautica in un colpo d'occhio ! - Copyright ORBIFLY Dicembre 2007 - Disclaimer

ORBIFLY MET'MAP TEAM :

Programmazione e sviluppo : Alexandra Zaïnal
Concezione e sviluppo : Baudouin d'Aumeries
Co-Programmazione e sviluppo : Marc-Olivier Méhu
Supporto tecnico e logistico : Manuel Goepfert
Aiuto per la traduzione : Arnaldo La Scala

Contatto : metmap@orbifly.com




FONTI E CREDITI :

   NOAA